createdAt,value
2023-04-24T00:01:51.108Z,98300.44
2023-04-24T00:04:18.081Z,98300.03
2023-04-24T00:06:44.883Z,98298.25
2023-04-24T00:09:11.573Z,98289.81
2023-04-24T00:11:38.292Z,98297.66
2023-04-24T00:14:05.114Z,98295.66
2023-04-24T00:16:31.784Z,98290.34
2023-04-24T00:18:59.871Z,98289.19
2023-04-24T00:21:26.446Z,98289.75
2023-04-24T00:23:53.946Z,98295.03
2023-04-24T00:26:20.529Z,98291.75
2023-04-24T00:28:46.982Z,98290.03
2023-04-24T00:31:13.659Z,98295.22
2023-04-24T00:33:40.328Z,98292.47
2023-04-24T00:36:08.673Z,98298.88
2023-04-24T00:38:35.341Z,98299.00
2023-04-24T00:41:02.188Z,98289.00
2023-04-24T00:43:28.782Z,98294.19
2023-04-24T00:45:55.513Z,98297.09
2023-04-24T00:48:22.592Z,98302.56
2023-04-24T00:50:49.166Z,98292.88
2023-04-24T00:53:17.263Z,98299.91
2023-04-24T00:55:44.119Z,98295.94
2023-04-24T00:58:10.777Z,98298.22
2023-04-24T01:00:37.452Z,98299.41
2023-04-24T01:03:06.176Z,98303.84
2023-04-24T01:05:33.670Z,98297.56
2023-04-24T01:08:01.024Z,98294.13
2023-04-24T01:10:31.808Z,98294.28
2023-04-24T01:12:59.429Z,98293.84
2023-04-24T01:15:26.164Z,98303.47
2023-04-24T01:17:52.697Z,98302.31
2023-04-24T01:20:19.740Z,98299.59
2023-04-24T01:22:47.646Z,98299.16
2023-04-24T01:25:14.289Z,98303.47
2023-04-24T01:27:40.899Z,98292.13
2023-04-24T01:30:08.769Z,98295.88
2023-04-24T01:32:36.324Z,98302.00
2023-04-24T01:35:03.306Z,98299.91
2023-04-24T01:37:30.082Z,98312.16
2023-04-24T01:39:58.109Z,98316.66
2023-04-24T01:42:25.452Z,98314.06
2023-04-24T01:44:52.357Z,98310.28
2023-04-24T01:47:19.045Z,98318.09
2023-04-24T01:49:46.734Z,98310.44
2023-04-24T01:52:13.583Z,98312.06
2023-04-24T01:54:40.193Z,98307.56
2023-04-24T01:57:08.717Z,98311.88
2023-04-24T01:59:35.681Z,98320.56
2023-04-24T02:02:02.561Z,98316.53
2023-04-24T02:04:29.302Z,98313.38
2023-04-24T02:06:55.867Z,98316.00
2023-04-24T02:09:22.430Z,98316.00
2023-04-24T02:11:49.092Z,98313.09
2023-04-24T02:14:19.667Z,98315.22
2023-04-24T02:16:46.333Z,98308.63
2023-04-24T02:19:12.985Z,98313.50
2023-04-24T02:21:39.757Z,98308.34
2023-04-24T02:24:06.507Z,98311.72
2023-04-24T02:26:33.110Z,98314.09
2023-04-24T02:28:59.730Z,98305.72
2023-04-24T02:31:27.919Z,98306.66
2023-04-24T02:33:54.524Z,98313.53
2023-04-24T02:36:21.080Z,98303.72
2023-04-24T02:38:47.893Z,98307.91
2023-04-24T02:41:14.577Z,98316.94
2023-04-24T02:43:41.192Z,98315.97
2023-04-24T02:46:08.226Z,98314.16
2023-04-24T02:48:36.226Z,98326.06
2023-04-24T02:51:02.808Z,98328.06
2023-04-24T02:53:29.482Z,98331.22
2023-04-24T02:55:56.086Z,98327.31
2023-04-24T02:58:22.894Z,98323.00
2023-04-24T03:00:49.512Z,98328.00
2023-04-24T03:03:16.214Z,98338.28
2023-04-24T03:05:44.274Z,98331.00
2023-04-24T03:08:10.871Z,98324.59
2023-04-24T03:10:37.449Z,98337.25
2023-04-24T03:13:04.149Z,98324.25
2023-04-24T03:15:30.848Z,98328.94
2023-04-24T03:17:57.499Z,98332.31
2023-04-24T03:20:24.399Z,98340.94
2023-04-24T03:22:52.353Z,98338.66
2023-04-24T03:25:19.079Z,98334.63
2023-04-24T03:27:45.628Z,98340.38
2023-04-24T03:30:12.454Z,98342.41
2023-04-24T03:32:39.048Z,98346.09
2023-04-24T03:35:06.553Z,98341.91
2023-04-24T03:37:33.108Z,98342.16
2023-04-24T03:40:01.094Z,98348.19
2023-04-24T03:42:27.656Z,98352.50
2023-04-24T03:44:54.124Z,98347.13
2023-04-24T03:47:20.695Z,98345.06
2023-04-24T03:49:47.316Z,98347.50
2023-04-24T03:52:14.113Z,98342.34
2023-04-24T03:54:40.708Z,98344.22
2023-04-24T03:57:08.570Z,98343.97
2023-04-24T03:59:35.132Z,98344.41
2023-04-24T04:02:01.741Z,98345.25
2023-04-24T04:04:28.475Z,98340.50
2023-04-24T04:06:55.419Z,98342.06
2023-04-24T04:09:21.986Z,98356.13
2023-04-24T04:11:48.567Z,98348.34
2023-04-24T04:14:16.677Z,98353.22
2023-04-24T04:16:43.428Z,98354.78
2023-04-24T04:19:10.466Z,98352.78
2023-04-24T04:21:36.992Z,98359.56
2023-04-24T04:24:03.791Z,98354.91
2023-04-24T04:26:30.572Z,98361.69
2023-04-24T04:28:57.191Z,98366.00
2023-04-24T04:31:25.195Z,98368.84
2023-04-24T04:33:51.762Z,98363.25
2023-04-24T04:36:18.342Z,98365.66
2023-04-24T04:38:44.855Z,98372.94
2023-04-24T04:41:11.432Z,98378.09
2023-04-24T04:43:37.998Z,98368.50
2023-04-24T04:46:04.707Z,98367.41
2023-04-24T04:48:32.857Z,98373.69
2023-04-24T04:50:59.471Z,98368.06
2023-04-24T04:53:26.050Z,98373.88
2023-04-24T04:55:53.136Z,98379.63
2023-04-24T04:58:19.957Z,98379.22
2023-04-24T05:00:46.561Z,98376.00
2023-04-24T05:03:19.864Z,98380.28
2023-04-24T05:05:49.569Z,98386.88
2023-04-24T05:08:26.269Z,98380.66
2023-04-24T05:10:53.535Z,98385.09
2023-04-24T05:13:28.332Z,98384.81
2023-04-24T05:15:58.929Z,98393.00
2023-04-24T05:18:25.604Z,98388.19
2023-04-24T05:20:53.515Z,98388.94
2023-04-24T05:23:20.070Z,98387.59
2023-04-24T05:25:46.816Z,98386.66
2023-04-24T05:28:13.442Z,98383.75
2023-04-24T05:30:40.218Z,98383.75
2023-04-24T05:33:06.946Z,98389.88
2023-04-24T05:35:33.784Z,98385.78
2023-04-24T05:38:01.753Z,98394.06
2023-04-24T05:40:28.539Z,98391.53
2023-04-24T05:42:54.944Z,98394.53
2023-04-24T05:45:21.670Z,98394.53
2023-04-24T05:47:48.362Z,98394.72
2023-04-24T05:50:15.147Z,98406.69
2023-04-24T05:52:41.885Z,98399.66
2023-04-24T05:55:10.007Z,98394.63
2023-04-24T05:57:36.623Z,98403.34
2023-04-24T06:00:04.194Z,98401.38
2023-04-24T06:02:31.034Z,98398.63
2023-04-24T06:04:57.801Z,98402.81
2023-04-24T06:07:24.552Z,98406.91
2023-04-24T06:09:51.148Z,98403.97
2023-04-24T06:12:19.148Z,98399.25
2023-04-24T06:14:45.745Z,98398.47
2023-04-24T06:17:12.303Z,98409.22
2023-04-24T06:19:38.881Z,98405.50
2023-04-24T06:22:05.572Z,98400.28
2023-04-24T06:24:32.141Z,98411.63
2023-04-24T06:26:58.913Z,98414.66
2023-04-24T06:29:26.835Z,98411.09
2023-04-24T06:31:53.470Z,98411.97
2023-04-24T06:34:20.282Z,98410.47
2023-04-24T06:36:47.874Z,98405.16
2023-04-24T06:39:14.507Z,98401.78
2023-04-24T06:41:42.177Z,98400.16
2023-04-24T06:44:08.728Z,98409.94
2023-04-24T06:46:37.493Z,98404.25
2023-04-24T06:49:05.211Z,98404.41
2023-04-24T06:51:31.758Z,98403.91
2023-04-24T06:53:58.555Z,98409.84
2023-04-24T06:56:25.780Z,98413.84
2023-04-24T06:58:52.792Z,98407.75
2023-04-24T07:01:19.437Z,98404.53
2023-04-24T07:03:47.721Z,98401.34
2023-04-24T07:06:14.500Z,98401.53
2023-04-24T07:08:41.166Z,98404.41
2023-04-24T07:11:07.838Z,98418.22
2023-04-24T07:13:34.418Z,98413.97
2023-04-24T07:16:01.006Z,98417.22
2023-04-24T07:18:27.634Z,98412.09
2023-04-24T07:20:55.653Z,98408.28
2023-04-24T07:23:22.303Z,98412.91
2023-04-24T07:25:48.888Z,98418.13
2023-04-24T07:28:15.527Z,98407.63
2023-04-24T07:30:42.171Z,98416.31
2023-04-24T07:33:08.843Z,98411.09
2023-04-24T07:35:35.561Z,98412.66
2023-04-24T07:38:03.721Z,98410.09
2023-04-24T07:40:30.500Z,98415.78
2023-04-24T07:42:57.069Z,98435.72
2023-04-24T07:45:23.626Z,98419.63
2023-04-24T07:47:51.708Z,98441.22
2023-04-24T07:50:18.608Z,98453.69
2023-04-24T07:52:45.344Z,98458.38
2023-04-24T07:55:13.533Z,98447.28
2023-04-24T07:57:40.209Z,98451.97
2023-04-24T08:00:08.150Z,98449.44
2023-04-24T08:02:34.809Z,98456.03
2023-04-24T08:05:01.662Z,98457.31
2023-04-24T08:07:28.407Z,98461.09
2023-04-24T08:09:55.000Z,98461.69
2023-04-24T08:12:22.969Z,98460.72
2023-04-24T08:14:49.568Z,98458.41
2023-04-24T08:17:17.614Z,98460.25
2023-04-24T08:19:45.056Z,98464.16
2023-04-24T08:22:11.724Z,98477.63
2023-04-24T08:24:38.334Z,98496.97
2023-04-24T08:27:05.056Z,98502.41
2023-04-24T08:29:33.162Z,98502.59
2023-04-24T08:31:59.925Z,98493.91
2023-04-24T08:34:26.582Z,98497.88
2023-04-24T08:36:53.333Z,98516.47
2023-04-24T08:39:20.010Z,98518.72
2023-04-24T08:41:49.266Z,98516.16
2023-04-24T08:44:17.001Z,98520.31
2023-04-24T08:46:46.494Z,98522.38
2023-04-24T08:49:15.025Z,98522.91
2023-04-24T08:51:41.806Z,98534.53
2023-04-24T08:54:08.461Z,98543.72
2023-04-24T08:56:38.028Z,98543.69
2023-04-24T08:59:05.153Z,98548.03
2023-04-24T09:01:33.585Z,98555.97
2023-04-24T09:04:03.720Z,98550.44
2023-04-24T09:06:31.295Z,98562.13
2023-04-24T09:09:01.227Z,98562.19
2023-04-24T09:11:28.643Z,98561.50
2023-04-24T09:13:55.448Z,98572.31
2023-04-24T09:16:22.048Z,98578.03
2023-04-24T09:18:48.738Z,98591.97
2023-04-24T09:21:16.774Z,98591.72
2023-04-24T09:23:43.657Z,98607.34
2023-04-24T09:26:10.908Z,98619.28
2023-04-24T09:28:38.681Z,98613.97
2023-04-24T09:31:07.402Z,98620.38
2023-04-24T09:33:34.399Z,98643.56
2023-04-24T09:36:01.198Z,98648.44
2023-04-24T09:38:39.251Z,98659.81
2023-04-24T09:41:08.244Z,98663.59
2023-04-24T09:43:35.941Z,98672.34
2023-04-24T09:46:06.466Z,98673.50
2023-04-24T09:48:34.365Z,98678.56
2023-04-24T09:51:02.321Z,98688.03
2023-04-24T09:53:29.246Z,98684.06
2023-04-24T09:55:57.728Z,98694.16
2023-04-24T09:58:27.445Z,98705.63
2023-04-24T10:00:54.764Z,98704.94
2023-04-24T10:03:26.238Z,98710.25
2023-04-24T10:05:53.985Z,98704.63
2023-04-24T10:08:21.744Z,98720.63
2023-04-24T10:10:48.471Z,98730.00
2023-04-24T10:13:16.779Z,98730.09
2023-04-24T10:15:44.329Z,98735.06
2023-04-24T10:18:11.965Z,98730.44
2023-04-24T10:20:40.340Z,98756.50
2023-04-24T10:23:07.445Z,98746.81
2023-04-24T10:25:35.510Z,98750.44
2023-04-24T10:28:03.674Z,98753.84
2023-04-24T10:30:33.203Z,98769.16
2023-04-24T10:33:00.907Z,98770.78
2023-04-24T10:35:27.565Z,98767.16
2023-04-24T10:37:59.176Z,98771.22
2023-04-24T10:40:28.195Z,98769.91
2023-04-24T10:42:56.824Z,98778.84
2023-04-24T10:45:26.243Z,98789.88
2023-04-24T10:47:58.421Z,98788.88
2023-04-24T10:50:27.151Z,98789.47
2023-04-24T10:52:53.745Z,98794.06
2023-04-24T10:55:42.340Z,98799.22
2023-04-24T10:58:08.906Z,98805.00
2023-04-24T11:00:38.054Z,98803.22
2023-04-24T11:03:07.812Z,98815.06
2023-04-24T11:05:51.694Z,98798.16
2023-04-24T11:08:26.290Z,98817.91
2023-04-24T11:11:01.694Z,98828.22
2023-04-24T11:13:49.262Z,98829.16
2023-04-24T11:16:21.035Z,98820.84
2023-04-24T11:18:52.475Z,98827.50
2023-04-24T11:21:19.206Z,98827.00
2023-04-24T11:23:46.230Z,98827.19
2023-04-24T11:26:13.836Z,98834.84
2023-04-24T11:28:46.579Z,98839.00
2023-04-24T11:31:35.702Z,98848.44
2023-04-24T11:34:08.998Z,98845.94
2023-04-24T11:36:36.393Z,98851.50
2023-04-24T11:39:03.524Z,98854.69
2023-04-24T11:41:30.314Z,98861.75
2023-04-24T11:43:58.315Z,98864.84
2023-04-24T11:46:29.213Z,98871.19
2023-04-24T11:48:56.866Z,98872.31
2023-04-24T11:51:27.372Z,98864.56
2023-04-24T11:54:03.555Z,98862.56
2023-04-24T11:56:30.799Z,98861.56
2023-04-24T11:58:57.466Z,98862.03
2023-04-24T12:01:24.045Z,98860.97
2023-04-24T12:03:52.140Z,98877.06
2023-04-24T12:06:19.073Z,98871.56
2023-04-24T12:08:48.646Z,98877.47
2023-04-24T12:11:17.454Z,98884.22
2023-04-24T12:13:44.428Z,98908.97
2023-04-24T12:16:11.675Z,98891.78
2023-04-24T12:18:42.983Z,98901.69
2023-04-24T12:21:22.717Z,98897.09
2023-04-24T12:23:51.262Z,98887.72
2023-04-24T12:26:18.783Z,98906.03
2023-04-24T12:28:48.336Z,98909.47
2023-04-24T12:31:15.357Z,98909.59
2023-04-24T12:33:42.202Z,98915.59
2023-04-24T12:36:11.317Z,98908.63
2023-04-24T12:38:37.880Z,98919.22
2023-04-24T12:41:08.062Z,98930.25
2023-04-24T12:43:35.677Z,98928.00
2023-04-24T12:46:02.289Z,98932.28
2023-04-24T12:48:29.063Z,98933.38
2023-04-24T12:50:55.685Z,98927.38
2023-04-24T12:53:22.296Z,98934.97
2023-04-24T12:55:49.315Z,98920.91
2023-04-24T12:58:17.266Z,98930.25
2023-04-24T13:00:43.863Z,98930.44
2023-04-24T13:03:10.510Z,98914.50
2023-04-24T13:05:37.417Z,98932.75
2023-04-24T13:08:04.051Z,98943.13
2023-04-24T13:10:30.630Z,98947.88
2023-04-24T13:12:57.654Z,98938.72
2023-04-24T13:15:25.879Z,98939.97
2023-04-24T13:17:52.537Z,98944.41
2023-04-24T13:20:19.701Z,98946.72
2023-04-24T13:22:46.383Z,98945.38
2023-04-24T13:25:13.047Z,98943.25
2023-04-24T13:27:40.104Z,98958.72
2023-04-24T13:30:07.966Z,98955.81
2023-04-24T13:32:36.868Z,98962.22
2023-04-24T13:35:03.816Z,98953.75
2023-04-24T13:37:30.423Z,98958.75
2023-04-24T13:39:57.057Z,98956.44
2023-04-24T13:42:24.149Z,98966.97
2023-04-24T13:44:50.709Z,98958.38
2023-04-24T13:47:17.336Z,98946.78
2023-04-24T13:49:45.265Z,98955.84
2023-04-24T13:52:11.875Z,98961.84
2023-04-24T13:54:38.490Z,98962.47
2023-04-24T13:57:05.320Z,98962.31
2023-04-24T13:59:31.932Z,98962.81
2023-04-24T14:01:58.589Z,98957.56
2023-04-24T14:04:25.471Z,98960.72
2023-04-24T14:06:53.764Z,98963.59
2023-04-24T14:09:20.364Z,98955.13
2023-04-24T14:11:46.985Z,98953.28
2023-04-24T14:14:13.475Z,98954.81
2023-04-24T14:16:40.405Z,98970.59
2023-04-24T14:19:07.248Z,98959.75
2023-04-24T14:21:34.022Z,98970.84
2023-04-24T14:24:01.988Z,98970.75
2023-04-24T14:26:28.661Z,98973.66
2023-04-24T14:29:01.136Z,98968.91
2023-04-24T14:31:34.269Z,98967.84
2023-04-24T14:34:00.991Z,98968.88
2023-04-24T14:36:27.574Z,98961.34
2023-04-24T14:38:54.170Z,98957.34
2023-04-24T14:41:22.131Z,98959.47
2023-04-24T14:43:48.850Z,98966.69
2023-04-24T14:46:15.534Z,98967.72
2023-04-24T14:48:42.176Z,98973.19
2023-04-24T14:51:08.756Z,98980.63
2023-04-24T14:53:35.390Z,98978.25
2023-04-24T14:56:01.970Z,98967.47
2023-04-24T14:58:30.046Z,98969.78
2023-04-24T15:00:56.668Z,98984.38
2023-04-24T15:03:23.369Z,98982.63
2023-04-24T15:05:51.112Z,98982.06
2023-04-24T15:08:17.750Z,98991.97
2023-04-24T15:10:45.134Z,98982.03
2023-04-24T15:13:11.709Z,98986.38
2023-04-24T15:15:39.689Z,98977.63
2023-04-24T15:18:06.408Z,98990.31
2023-04-24T15:20:33.139Z,98990.00
2023-04-24T15:23:00.062Z,98989.16
2023-04-24T15:25:26.788Z,98973.84
2023-04-24T15:27:53.375Z,98979.91
2023-04-24T15:30:19.995Z,98984.28
2023-04-24T15:32:48.104Z,98990.28
2023-04-24T15:35:14.666Z,98994.50
2023-04-24T15:37:41.463Z,98991.78
2023-04-24T15:40:09.217Z,98983.44
2023-04-24T15:42:36.099Z,98995.00
2023-04-24T15:45:03.144Z,98987.28
2023-04-24T15:47:30.158Z,98985.88
2023-04-24T15:49:58.337Z,98994.34
2023-04-24T15:52:25.082Z,98992.56
2023-04-24T15:54:52.114Z,98993.28
2023-04-24T15:57:18.863Z,98992.22
2023-04-24T15:59:46.038Z,98986.28
2023-04-24T16:02:13.995Z,98996.81
2023-04-24T16:04:40.829Z,98990.19
2023-04-24T16:07:08.848Z,99003.81
2023-04-24T16:09:35.451Z,99002.34
2023-04-24T16:12:02.308Z,99004.22
2023-04-24T16:14:28.918Z,99007.38
2023-04-24T16:16:55.612Z,99014.47
2023-04-24T16:19:22.423Z,99011.56
2023-04-24T16:21:48.978Z,99010.13
2023-04-24T16:24:17.152Z,99005.53
2023-04-24T16:26:43.786Z,99008.97
2023-04-24T16:29:10.417Z,99010.69
2023-04-24T16:31:37.053Z,99006.09
2023-04-24T16:34:03.709Z,99005.94
2023-04-24T16:36:30.372Z,99002.78
2023-04-24T16:38:56.952Z,99014.31
2023-04-24T16:41:24.897Z,99012.31
2023-04-24T16:43:51.536Z,99012.72
2023-04-24T16:46:18.417Z,99014.16
2023-04-24T16:48:45.113Z,99015.31
2023-04-24T16:51:11.711Z,99024.41
2023-04-24T16:53:38.443Z,99028.84
2023-04-24T16:56:05.507Z,99032.72
2023-04-24T16:58:33.592Z,99032.72
2023-04-24T17:01:00.302Z,99033.31
2023-04-24T17:03:27.121Z,99031.97
2023-04-24T17:05:53.756Z,99031.13
2023-04-24T17:08:20.396Z,99034.03
2023-04-24T17:10:46.955Z,99035.16
2023-04-24T17:13:13.624Z,99043.22
2023-04-24T17:15:41.881Z,99038.47
2023-04-24T17:18:08.577Z,99034.91
2023-04-24T17:20:35.284Z,99037.16
2023-04-24T17:23:01.993Z,99040.09
2023-04-24T17:25:28.790Z,99033.03
2023-04-24T17:27:55.686Z,99039.56
2023-04-24T17:30:22.500Z,99037.34
2023-04-24T17:32:50.422Z,99040.06
2023-04-24T17:35:17.210Z,99033.28
2023-04-24T17:37:43.884Z,99039.31
2023-04-24T17:40:11.769Z,99039.56
2023-04-24T17:42:38.421Z,99036.59
2023-04-24T17:45:05.928Z,99041.47
2023-04-24T17:47:32.497Z,99047.03
2023-04-24T17:50:00.596Z,99064.91
2023-04-24T17:52:27.137Z,99056.72
2023-04-24T17:54:53.895Z,99066.66
2023-04-24T17:57:20.516Z,99066.97
2023-04-24T17:59:47.127Z,99074.47
2023-04-24T18:02:13.840Z,99074.00
2023-04-24T18:04:40.688Z,99082.81
2023-04-24T18:07:08.723Z,99083.41
2023-04-24T18:09:35.499Z,99087.94
2023-04-24T18:12:02.072Z,99085.59
2023-04-24T18:14:29.193Z,99082.16
2023-04-24T18:16:58.036Z,99092.66
2023-04-24T18:19:24.826Z,99092.31
2023-04-24T18:21:51.408Z,99091.72
2023-04-24T18:24:19.478Z,99095.56
2023-04-24T18:26:46.187Z,99090.47
2023-04-24T18:29:12.720Z,99094.44
2023-04-24T18:31:39.666Z,99101.00
2023-04-24T18:34:06.344Z,99104.34
2023-04-24T18:36:32.933Z,99109.19
2023-04-24T18:38:59.586Z,99099.41
2023-04-24T18:41:27.732Z,99099.03
2023-04-24T18:43:54.302Z,99105.00
2023-04-24T18:46:20.970Z,99109.69
2023-04-24T18:48:47.791Z,99115.50
2023-04-24T18:51:14.924Z,99114.63
2023-04-24T18:53:41.961Z,99113.28
2023-04-24T18:56:08.646Z,99117.22
2023-04-24T18:58:36.749Z,99112.41
2023-04-24T19:01:05.009Z,99117.25
2023-04-24T19:03:33.309Z,99118.97
2023-04-24T19:05:59.843Z,99126.41
2023-04-24T19:08:26.386Z,99125.16
2023-04-24T19:10:53.172Z,99126.03
2023-04-24T19:13:20.005Z,99137.81
2023-04-24T19:15:48.034Z,99118.84
2023-04-24T19:18:14.793Z,99137.91
2023-04-24T19:20:41.736Z,99130.72
2023-04-24T19:23:08.479Z,99136.94
2023-04-24T19:25:35.323Z,99137.28
2023-04-24T19:28:02.010Z,99142.03
2023-04-24T19:30:28.620Z,99149.69
2023-04-24T19:32:56.807Z,99145.34
2023-04-24T19:35:23.843Z,99141.69
2023-04-24T19:37:50.523Z,99151.94
2023-04-24T19:40:17.747Z,99152.16
2023-04-24T19:42:44.852Z,99154.81
2023-04-24T19:45:12.148Z,99149.81
2023-04-24T19:47:39.052Z,99150.91
2023-04-24T19:50:08.240Z,99136.09
2023-04-24T19:52:34.983Z,99140.38
2023-04-24T19:55:01.636Z,99133.91
2023-04-24T19:57:28.376Z,99140.66
2023-04-24T19:59:54.981Z,99150.47
2023-04-24T20:02:21.659Z,99144.09
2023-04-24T20:04:48.578Z,99149.00
2023-04-24T20:07:16.880Z,99156.00
2023-04-24T20:09:43.609Z,99147.81
2023-04-24T20:12:10.594Z,99150.66
2023-04-24T20:14:39.642Z,99166.19
2023-04-24T20:17:06.474Z,99151.72
2023-04-24T20:19:33.209Z,99146.06
2023-04-24T20:22:00.074Z,99146.88
2023-04-24T20:24:28.641Z,99151.53
2023-04-24T20:26:55.333Z,99155.13
2023-04-24T20:29:22.034Z,99149.34
2023-04-24T20:31:48.889Z,99160.13
2023-04-24T20:34:15.615Z,99164.66
2023-04-24T20:36:46.252Z,99160.34
2023-04-24T20:39:14.801Z,99157.94
2023-04-24T20:41:42.974Z,99139.25
2023-04-24T20:44:09.674Z,99151.53
2023-04-24T20:46:36.393Z,99166.53
2023-04-24T20:49:03.096Z,99150.56
2023-04-24T20:51:29.797Z,99151.75
2023-04-24T20:53:56.501Z,99161.75
2023-04-24T20:56:23.161Z,99172.03
2023-04-24T20:58:52.064Z,99171.16
2023-04-24T21:01:20.373Z,99163.53
2023-04-24T21:03:47.544Z,99154.88
2023-04-24T21:06:14.657Z,99152.38
2023-04-24T21:08:41.270Z,99160.97
2023-04-24T21:11:07.913Z,99168.00
2023-04-24T21:13:34.488Z,99173.09
2023-04-24T21:16:02.575Z,99160.25
2023-04-24T21:18:29.258Z,99159.94
2023-04-24T21:20:55.943Z,99162.66
2023-04-24T21:23:22.871Z,99161.97
2023-04-24T21:25:49.492Z,99156.75
2023-04-24T21:28:16.527Z,99148.53
2023-04-24T21:30:43.229Z,99147.75
2023-04-24T21:33:11.705Z,99148.03
2023-04-24T21:35:38.360Z,99157.50
2023-04-24T21:38:04.974Z,99157.41
2023-04-24T21:40:31.699Z,99170.31
2023-04-24T21:42:58.417Z,99163.84
2023-04-24T21:45:25.468Z,99160.88
2023-04-24T21:47:52.154Z,99146.78
2023-04-24T21:50:20.338Z,99162.84
2023-04-24T21:52:46.925Z,99165.84
2023-04-24T21:55:13.482Z,99162.75
2023-04-24T21:57:40.250Z,99161.31
2023-04-24T22:00:08.422Z,99161.16
2023-04-24T22:02:35.328Z,99158.53
2023-04-24T22:05:02.010Z,99164.81
2023-04-24T22:07:29.973Z,99163.50
2023-04-24T22:09:56.608Z,99169.56
2023-04-24T22:12:23.159Z,99168.22
2023-04-24T22:14:50.465Z,99171.41
2023-04-24T22:17:17.097Z,99172.78
2023-04-24T22:19:43.680Z,99175.09
2023-04-24T22:22:10.306Z,99166.63
2023-04-24T22:24:38.296Z,99169.13
2023-04-24T22:27:04.863Z,99165.66
2023-04-24T22:29:31.429Z,99169.34
2023-04-24T22:31:58.116Z,99166.22
2023-04-24T22:34:24.672Z,99167.00
2023-04-24T22:36:51.218Z,99167.06
2023-04-24T22:39:17.858Z,99169.78
2023-04-24T22:41:45.883Z,99163.13
2023-04-24T22:44:12.610Z,99164.56
2023-04-24T22:46:39.951Z,99166.28
2023-04-24T22:49:06.537Z,99174.81
2023-04-24T22:51:33.395Z,99170.47
2023-04-24T22:54:02.149Z,99170.47
2023-04-24T22:56:28.751Z,99156.72
2023-04-24T22:58:57.504Z,99163.97
2023-04-24T23:01:24.614Z,99153.34
2023-04-24T23:03:51.578Z,99160.13
2023-04-24T23:06:18.484Z,99148.13
2023-04-24T23:08:46.080Z,99153.94
2023-04-24T23:11:13.000Z,99162.06
2023-04-24T23:13:39.585Z,99168.75
2023-04-24T23:16:07.880Z,99165.06
2023-04-24T23:18:34.557Z,99163.59
2023-04-24T23:21:01.167Z,99159.63
2023-04-24T23:23:28.083Z,99163.91
2023-04-24T23:25:54.684Z,99165.50
2023-04-24T23:28:21.302Z,99168.53
2023-04-24T23:30:47.877Z,99175.78
2023-04-24T23:33:16.061Z,99162.09
2023-04-24T23:35:42.811Z,99165.63
2023-04-24T23:38:09.478Z,99155.66
2023-04-24T23:40:36.202Z,99156.50
2023-04-24T23:43:07.378Z,99164.44
2023-04-24T23:45:35.455Z,99160.56
2023-04-24T23:48:02.319Z,99159.97
2023-04-24T23:50:30.598Z,99156.63
2023-04-24T23:52:57.305Z,99166.66
2023-04-24T23:55:23.936Z,99162.97
2023-04-24T23:57:50.781Z,99162.03
